Time;durP1;ratioP1;P1;durP2;ratioP2;P2;SDS_P1;SDS_P2;PMS_P1;PMS_P2;Temp;Humidity;BMP_temperature;BMP_pressure;BME280_temperature;BME280_humidity;BME280_pressure;Samples;Min_cycle;Max_cycle;Signal;HPM_P1;HPM_P2
2021/05/20 00:00:27;;;;;;;8.40;5.57;;;;;;;8.78;86.56;101096.41;128354;1101;62464;-80
2021/05/20 00:02:57;;;;;;;10.97;5.63;;;;;;;8.75;86.26;101104.63;128386;1101;62362;-81
2021/05/20 00:05:24;;;;;;;8.03;5.13;;;;;;;8.71;86.52;101103.27;128447;1101;62006;-80
2021/05/20 00:07:51;;;;;;;6.50;4.67;;;;;;;8.67;86.60;101107.20;128442;1101;62870;-80
2021/05/20 00:10:18;;;;;;;7.17;5.13;;;;;;;8.63;87.11;101111.13;128453;1101;62106;-80
2021/05/20 00:12:46;;;;;;;11.50;5.83;;;;;;;8.57;87.05;101107.30;128367;1101;64016;-80
2021/05/20 00:15:14;;;;;;;10.23;6.50;;;;;;;8.52;86.96;101118.34;128403;1101;62217;-80
2021/05/20 00:17:42;;;;;;;7.50;5.60;;;;;;;8.46;87.08;101118.94;128362;1101;62456;-80
2021/05/20 00:20:10;;;;;;;9.80;6.33;;;;;;;8.43;87.34;101116.58;128461;1101;62087;-80
2021/05/20 00:22:38;;;;;;;12.97;5.50;;;;;;;8.40;86.84;101118.68;128408;1101;63177;-81
2021/05/20 00:25:06;;;;;;;7.23;4.53;;;;;;;8.35;88.03;101111.17;128149;1101;62432;-80
2021/05/20 00:27:33;;;;;;;8.93;5.03;;;;;;;8.32;87.38;101127.34;128410;1101;62359;-80
2021/05/20 00:30:00;;;;;;;10.73;5.57;;;;;;;8.30;88.09;101124.02;128142;1101;62073;-81
2021/05/20 00:32:27;;;;;;;9.83;5.83;;;;;;;8.25;87.53;101126.30;128428;1101;62141;-81
2021/05/20 00:34:54;;;;;;;7.27;5.20;;;;;;;8.23;87.68;101125.61;128421;1101;62802;-81
2021/05/20 00:37:21;;;;;;;12.60;6.43;;;;;;;8.21;87.91;101130.21;128375;1102;62208;-80
2021/05/20 00:39:49;;;;;;;10.53;5.77;;;;;;;8.15;88.20;101135.09;128409;1101;62122;-80
2021/05/20 00:42:16;;;;;;;12.40;5.60;;;;;;;8.12;88.67;101138.05;128405;1101;62490;-79
2021/05/20 00:44:58;;;;;;;12.50;6.23;;;;;;;8.08;88.79;101141.14;128456;1101;62578;-78
2021/05/20 00:47:29;;;;;;;10.93;6.00;;;;;;;8.04;88.48;101132.66;128366;1101;63235;-79
2021/05/20 00:49:57;;;;;;;9.13;5.87;;;;;;;8.01;88.73;101143.54;128411;1101;62549;-80
2021/05/20 00:52:25;;;;;;;10.00;5.17;;;;;;;7.97;89.14;101139.52;128389;1101;62315;-79
2021/05/20 00:54:55;;;;;;;10.10;5.93;;;;;;;7.92;88.71;101136.47;128405;1101;63038;-79
2021/05/20 00:57:24;;;;;;;8.33;5.63;;;;;;;7.88;88.80;101141.21;128418;1101;62387;-79
2021/05/20 00:59:55;;;;;;;11.77;6.80;;;;;;;7.86;89.40;101142.34;128338;1102;62308;-79
2021/05/20 01:02:23;;;;;;;11.53;6.27;;;;;;;7.83;89.41;101146.11;128305;1101;62307;-78
2021/05/20 01:04:51;;;;;;;8.30;5.73;;;;;;;7.79;89.45;101142.09;128375;1101;64021;-79
2021/05/20 01:07:18;;;;;;;9.53;6.23;;;;;;;7.79;89.56;101143.91;128416;1101;62537;-79
2021/05/20 01:09:45;;;;;;;11.57;6.43;;;;;;;7.75;90.32;101146.00;128129;1102;62154;-78
2021/05/20 01:12:12;;;;;;;7.07;4.50;;;;;;;7.71;89.68;101148.13;128108;1101;62861;-78
2021/05/20 01:14:41;;;;;;;13.37;7.07;;;;;;;7.67;90.14;101154.67;128309;1101;62464;-78
2021/05/20 01:17:09;;;;;;;12.70;7.57;;;;;;;7.66;90.53;101157.45;128396;1101;62300;-78
2021/05/20 01:19:37;;;;;;;11.40;7.87;;;;;;;7.62;90.14;101148.97;128360;1101;62345;-78
2021/05/20 01:22:05;;;;;;;10.07;6.87;;;;;;;7.60;90.18;101156.20;128430;1101;62582;-78
2021/05/20 01:24:34;;;;;;;11.10;6.93;;;;;;;7.60;90.23;101147.45;128412;1101;62086;-78
2021/05/20 01:27:04;;;;;;;10.63;7.63;;;;;;;7.59;89.71;101157.20;128332;1101;62684;-79
2021/05/20 01:29:31;;;;;;;12.87;7.47;;;;;;;7.57;90.05;101158.32;128299;1101;62703;-77
2021/05/20 01:32:01;;;;;;;11.00;7.23;;;;;;;7.55;90.04;101154.00;128302;1101;62409;-78
2021/05/20 01:34:32;;;;;;;14.00;7.87;;;;;;;7.54;89.84;101156.77;128311;1101;62415;-78
2021/05/20 01:37:00;;;;;;;11.50;7.50;;;;;;;7.50;90.48;101164.17;128357;1101;63375;-78
2021/05/20 01:39:28;;;;;;;12.80;7.97;;;;;;;7.47;90.23;101163.61;128349;1102;62569;-78
2021/05/20 01:41:55;;;;;;;11.80;6.70;;;;;;;7.42;90.51;101171.97;128359;1101;62668;-78
2021/05/20 01:44:23;;;;;;;14.07;7.50;;;;;;;7.39;90.42;101181.97;128362;1101;62060;-79
2021/05/20 01:46:50;;;;;;;16.37;8.10;;;;;;;7.34;90.58;101175.30;128122;1101;62298;-78
2021/05/20 01:49:17;;;;;;;11.20;7.17;;;;;;;7.30;89.81;101179.20;128353;1101;64123;-78
2021/05/20 01:51:44;;;;;;;17.40;8.73;;;;;;;7.28;90.64;101188.23;128318;1101;62079;-77
2021/05/20 01:54:11;;;;;;;14.70;7.50;;;;;;;7.26;91.18;101187.55;128338;1101;62283;-78
2021/05/20 01:56:38;;;;;;;13.27;7.80;;;;;;;7.24;91.05;101190.31;128385;1101;62649;-79
2021/05/20 01:59:07;;;;;;;11.70;7.37;;;;;;;7.23;90.93;101187.84;128319;1101;62212;-78
2021/05/20 02:01:35;;;;;;;12.80;8.80;;;;;;;7.21;90.76;101190.61;128029;1101;64208;-78
2021/05/20 02:04:03;;;;;;;13.40;7.87;;;;;;;7.19;90.70;101195.20;128343;1100;62703;-78
2021/05/20 02:06:30;;;;;;;12.03;7.70;;;;;;;7.17;90.54;101186.59;128359;1101;62223;-77
2021/05/20 02:08:58;;;;;;;14.13;7.53;;;;;;;7.15;90.74;101188.53;128374;1101;62082;-77
2021/05/20 02:11:25;;;;;;;12.83;8.07;;;;;;;7.12;90.51;101186.19;128339;1101;62566;-78
2021/05/20 02:13:52;;;;;;;12.70;8.20;;;;;;;7.10;90.86;101190.77;128323;1101;62874;-78
2021/05/20 02:16:19;;;;;;;12.40;8.40;;;;;;;7.06;90.62;101186.75;128362;1101;62643;-78
2021/05/20 02:18:46;;;;;;;12.43;8.43;;;;;;;7.04;90.59;101193.97;128371;1101;62162;-78
2021/05/20 02:21:13;;;;;;;13.53;7.80;;;;;;;7.02;90.77;101195.91;128414;1101;62103;-78
2021/05/20 02:23:40;;;;;;;13.63;7.63;;;;;;;6.99;90.82;101191.75;128355;1101;62043;-78
2021/05/20 02:26:07;;;;;;;12.67;8.73;;;;;;;6.98;90.42;101189.24;128359;1101;63153;-78
2021/05/20 02:28:34;;;;;;;16.20;8.50;;;;;;;6.96;90.71;101196.46;128374;1101;62101;-79
2021/05/20 02:31:01;;;;;;;12.57;8.83;;;;;;;6.93;90.72;101187.86;128351;1101;62262;-79
2021/05/20 02:33:28;;;;;;;14.43;8.73;;;;;;;6.92;90.54;101191.45;128206;1101;62743;-79
2021/05/20 02:35:55;;;;;;;12.13;7.83;;;;;;;6.91;91.12;101194.25;128430;1101;62221;-80
2021/05/20 02:38:22;;;;;;;16.70;8.70;;;;;;;6.87;91.01;101204.23;128374;1101;62856;-80
2021/05/20 02:40:49;;;;;;;12.10;7.80;;;;;;;6.85;91.20;101200.89;128353;1101;62236;-80
2021/05/20 02:43:16;;;;;;;12.87;8.50;;;;;;;6.83;91.19;101191.46;128377;1101;62418;-80
2021/05/20 02:45:43;;;;;;;16.63;9.20;;;;;;;6.82;90.90;101195.91;128328;1101;62621;-80
2021/05/20 02:48:15;;;;;;;15.67;9.20;;;;;;;6.79;91.58;101195.34;128408;1101;62085;-80
2021/05/20 02:50:42;;;;;;;14.83;9.33;;;;;;;6.76;91.59;101201.73;128349;1101;62088;-80
2021/05/20 02:53:09;;;;;;;14.60;8.03;;;;;;;6.74;91.50;101204.50;128307;1101;62437;-79
2021/05/20 02:55:36;;;;;;;17.13;9.70;;;;;;;6.72;91.21;101205.61;128357;1101;62685;-80
2021/05/20 02:58:04;;;;;;;14.97;8.67;;;;;;;6.68;91.55;101199.77;128396;1101;62573;-80
2021/05/20 03:00:36;;;;;;;15.93;8.97;;;;;;;6.66;91.73;101204.34;128449;1101;62602;-80
2021/05/20 03:03:04;;;;;;;15.87;9.30;;;;;;;6.66;91.73;101200.88;128438;1101;63030;-80
2021/05/20 03:05:31;;;;;;;14.80;9.13;;;;;;;6.66;92.31;101198.25;128411;1101;62491;-80
2021/05/20 03:07:58;;;;;;;17.23;10.17;;;;;;;6.65;92.42;101199.20;128434;1101;62267;-81
2021/05/20 03:10:26;;;;;;;15.37;9.27;;;;;;;6.65;92.10;101199.20;128417;1101;62602;-79
2021/05/20 03:12:54;;;;;;;13.83;9.03;;;;;;;6.64;92.12;101193.10;128376;1101;62300;-79
2021/05/20 03:15:21;;;;;;;20.60;9.47;;;;;;;6.65;92.23;101204.47;128134;1101;62901;-79
2021/05/20 03:17:49;;;;;;;17.50;9.70;;;;;;;6.63;92.39;101195.87;128342;1101;62422;-79
2021/05/20 03:20:17;;;;;;;14.63;9.20;;;;;;;6.62;92.55;101194.22;128368;1101;62860;-79
2021/05/20 03:22:46;;;;;;;17.50;10.17;;;;;;;6.62;92.79;101199.48;128414;1101;62144;-79
2021/05/20 03:25:15;;;;;;;16.57;9.73;;;;;;;6.64;92.63;101205.46;128392;1101;62171;-79
2021/05/20 03:27:42;;;;;;;16.63;9.87;;;;;;;6.64;92.59;101202.83;128420;1101;63727;-79
2021/05/20 03:30:10;;;;;;;17.20;9.73;;;;;;;6.64;92.56;101203.65;128338;1101;63535;-79
2021/05/20 03:32:37;;;;;;;14.13;9.67;;;;;;;6.65;92.97;101204.47;128450;1101;62137;-79
2021/05/20 03:35:05;;;;;;;14.27;9.47;;;;;;;6.65;92.89;101199.20;128440;1101;62738;-79
2021/05/20 03:37:34;;;;;;;17.60;10.20;;;;;;;6.64;92.96;101205.46;128420;1101;62037;-79
2021/05/20 03:40:01;;;;;;;16.47;9.90;;;;;;;6.65;92.64;101204.47;128333;1101;62806;-79
2021/05/20 03:42:28;;;;;;;18.43;11.10;;;;;;;6.64;92.45;101197.55;128267;1101;62265;-78
2021/05/20 03:44:55;;;;;;;18.60;9.47;;;;;;;6.64;92.42;101210.73;128359;1101;62257;-79
2021/05/20 03:47:22;;;;;;;14.00;8.97;;;;;;;6.64;92.78;101214.19;128367;1101;62700;-79
2021/05/20 03:49:49;;;;;;;16.00;10.47;;;;;;;6.67;92.95;101207.80;128293;1101;63072;-78
2021/05/20 03:52:16;;;;;;;16.03;9.53;;;;;;;6.68;92.94;101209.49;128344;1101;62234;-78
2021/05/20 03:54:43;;;;;;;16.03;9.13;;;;;;;6.71;92.73;101207.39;128389;1101;62132;-78
2021/05/20 03:57:11;;;;;;;16.40;9.77;;;;;;;6.74;92.75;101203.67;128404;1101;62185;-78
2021/05/20 03:59:38;;;;;;;19.77;9.07;;;;;;;6.77;92.61;101208.66;128365;1101;62182;-78
2021/05/20 04:02:06;;;;;;;16.60;9.77;;;;;;;6.81;92.38;101209.23;128406;1101;63061;-78
2021/05/20 04:04:35;;;;;;;13.60;8.63;;;;;;;6.82;92.35;101211.73;128374;1101;63306;-78
2021/05/20 04:07:02;;;;;;;15.80;9.70;;;;;;;6.84;92.24;101214.20;128371;1101;62180;-78
2021/05/20 04:09:32;;;;;;;16.20;9.83;;;;;;;6.87;92.42;101214.78;128401;1101;62270;-78
2021/05/20 04:11:59;;;;;;;16.30;9.97;;;;;;;6.90;92.64;101219.77;128358;1101;62229;-78
2021/05/20 04:14:26;;;;;;;14.03;8.83;;;;;;;6.96;92.58;101220.20;128349;1101;62395;-78
2021/05/20 04:16:53;;;;;;;15.80;9.30;;;;;;;7.00;92.26;101226.87;128388;1101;63323;-78
2021/05/20 04:19:20;;;;;;;14.83;9.00;;;;;;;7.03;92.50;101218.66;128400;1101;62034;-78
2021/05/20 04:21:47;;;;;;;12.47;8.13;;;;;;;7.06;92.04;101218.41;128350;1101;62383;-78
2021/05/20 04:24:14;;;;;;;14.83;8.80;;;;;;;7.09;91.84;101218.94;128419;1101;62777;-78
2021/05/20 04:26:41;;;;;;;14.07;8.90;;;;;;;7.14;91.79;101224.64;128318;1101;62102;-78
2021/05/20 04:29:09;;;;;;;13.43;8.17;;;;;;;7.18;92.31;101225.18;128342;1101;62205;-80
2021/05/20 04:31:36;;;;;;;13.57;8.53;;;;;;;7.21;92.15;101222.28;128355;1101;62529;-80
2021/05/20 04:34:04;;;;;;;12.87;8.10;;;;;;;7.26;92.16;101230.59;128418;1101;63337;-80
2021/05/20 04:36:31;;;;;;;14.63;9.30;;;;;;;7.31;91.80;101228.38;128400;1101;62002;-80
2021/05/20 04:38:58;;;;;;;16.50;7.90;;;;;;;7.39;91.85;101234.75;128348;1101;62229;-79
2021/05/20 04:41:25;;;;;;;12.90;8.73;;;;;;;7.45;91.59;101228.91;128438;1101;62867;-79
2021/05/20 04:43:52;;;;;;;14.43;9.00;;;;;;;7.53;91.69;101236.97;128091;1101;62489;-79
2021/05/20 04:46:19;;;;;;;12.23;8.77;;;;;;;7.63;91.70;101243.06;128447;1101;62163;-80
2021/05/20 04:48:46;;;;;;;15.23;8.47;;;;;;;7.70;91.11;101249.44;128156;1101;63095;-79
2021/05/20 04:51:15;;;;;;;14.67;9.00;;;;;;;7.80;91.08;101248.56;128372;1101;62264;-79
2021/05/20 04:53:42;;;;;;;16.43;8.07;;;;;;;7.88;91.01;101246.05;128463;1101;62877;-80
2021/05/20 04:56:09;;;;;;;15.87;9.17;;;;;;;7.95;91.06;101247.16;128144;1101;64215;-80
2021/05/20 04:58:36;;;;;;;15.90;9.20;;;;;;;8.05;91.12;101249.74;128295;1101;62352;-81
2021/05/20 05:01:03;;;;;;;15.50;9.00;;;;;;;8.11;90.73;101249.99;128422;1101;62251;-81
2021/05/20 05:03:31;;;;;;;14.87;8.97;;;;;;;8.22;90.80;101251.62;128397;1101;63700;-78
2021/05/20 05:05:58;;;;;;;12.70;8.83;;;;;;;8.32;90.76;101256.88;128249;1101;62472;-73
2021/05/20 05:08:25;;;;;;;14.10;9.60;;;;;;;8.42;90.28;101264.80;128385;1101;62207;-73
2021/05/20 05:10:52;;;;;;;13.03;8.80;;;;;;;8.52;89.91;101262.91;128334;1101;62391;-73
2021/05/20 05:13:19;;;;;;;11.83;8.20;;;;;;;8.62;90.22;101262.88;128346;1101;63083;-72
2021/05/20 05:15:47;;;;;;;10.17;7.00;;;;;;;8.70;89.29;101262.97;128403;1101;62265;-73
2021/05/20 05:18:14;;;;;;;10.93;6.90;;;;;;;8.74;88.66;101267.81;128329;1101;62453;-73
2021/05/20 05:20:41;;;;;;;12.10;7.97;;;;;;;8.82;88.80;101268.86;128313;1101;62340;-72
2021/05/20 05:23:08;;;;;;;10.30;6.27;;;;;;;8.89;88.88;101268.13;128364;1101;62296;-72
2021/05/20 05:25:38;;;;;;;11.70;7.63;;;;;;;8.96;88.03;101269.18;128331;1101;62522;-73
2021/05/20 05:28:06;;;;;;;11.63;7.20;;;;;;;9.02;88.18;101264.29;128376;1101;62216;-73
2021/05/20 05:30:34;;;;;;;14.83;9.37;;;;;;;9.10;88.40;101269.66;128412;1101;62344;-73
2021/05/20 05:33:01;;;;;;;11.20;7.03;;;;;;;9.20;88.05;101273.04;128382;1101;62289;-73
2021/05/20 05:35:29;;;;;;;7.23;5.27;;;;;;;9.30;87.74;101283.56;128404;1101;63936;-72
2021/05/20 05:37:56;;;;;;;11.07;7.07;;;;;;;9.38;87.19;101279.17;128428;1101;63004;-72
2021/05/20 05:40:23;;;;;;;9.53;6.67;;;;;;;9.42;86.56;101289.47;128370;1101;61721;-72
2021/05/20 05:42:50;;;;;;;11.80;8.53;;;;;;;9.50;86.05;101293.02;128374;1101;63058;-73
2021/05/20 05:45:17;;;;;;;10.20;6.67;;;;;;;9.54;85.31;101282.92;128380;1101;64180;-73
2021/05/20 05:47:44;;;;;;;14.03;10.23;;;;;;;9.61;85.66;101283.17;128331;1101;62292;-72
2021/05/20 05:50:13;;;;;;;12.53;9.27;;;;;;;9.64;85.66;101288.97;128310;1101;62064;-72
2021/05/20 05:52:41;;;;;;;10.57;7.03;;;;;;;9.71;85.32;101290.03;128365;1101;61961;-72
2021/05/20 05:55:09;;;;;;;16.50;8.77;;;;;;;9.78;85.62;101279.64;128266;1101;62313;-74
2021/05/20 05:57:36;;;;;;;11.90;7.90;;;;;;;9.88;84.38;101290.98;128250;1101;62196;-72
2021/05/20 06:00:05;;;;;;;9.13;6.27;;;;;;;10.03;84.54;101288.59;128157;1102;62218;-72
2021/05/20 06:02:33;;;;;;;13.07;7.67;;;;;;;10.15;83.92;101295.26;128347;1101;64924;-73
2021/05/20 06:05:03;;;;;;;14.00;9.43;;;;;;;10.23;82.89;101293.66;128437;1101;62325;-73
2021/05/20 06:07:35;;;;;;;15.73;10.70;;;;;;;10.26;82.13;101301.28;128350;1101;62793;-73
2021/05/20 06:10:05;;;;;;;12.07;8.40;;;;;;;10.37;81.90;101301.89;128353;1101;62140;-73
2021/05/20 06:12:32;;;;;;;16.17;10.97;;;;;;;10.49;82.30;101302.42;128259;1101;62185;-73
2021/05/20 06:15:00;;;;;;;9.97;6.47;;;;;;;10.61;81.71;101306.45;128368;1101;62731;-75
2021/05/20 06:17:27;;;;;;;13.03;8.67;;;;;;;10.76;81.67;101305.84;128382;1101;62322;-74
2021/05/20 06:19:54;;;;;;;14.77;9.27;;;;;;;10.93;81.14;101299.58;128350;1101;63080;-73
2021/05/20 06:22:21;;;;;;;13.77;10.03;;;;;;;11.05;79.40;101304.58;128349;1101;62276;-72
2021/05/20 06:24:49;;;;;;;9.40;7.00;;;;;;;11.05;78.07;101309.89;128250;1101;62340;-72
2021/05/20 06:27:16;;;;;;;12.43;8.23;;;;;;;11.13;78.05;101307.25;128409;1101;62303;-72
2021/05/20 06:29:43;;;;;;;11.33;8.17;;;;;;;11.17;77.82;101312.06;128401;1101;62036;-72
2021/05/20 06:32:10;;;;;;;13.50;8.63;;;;;;;11.25;77.54;101310.44;128358;1101;62884;-73
2021/05/20 06:34:37;;;;;;;9.77;7.57;;;;;;;11.27;77.87;101311.93;128427;1101;62393;-72
2021/05/20 06:37:04;;;;;;;18.63;11.17;;;;;;;11.28;77.73;101310.92;128436;1101;62511;-72
2021/05/20 06:39:31;;;;;;;15.80;11.67;;;;;;;11.16;77.49;101307.77;128459;1101;62466;-73
2021/05/20 06:41:58;;;;;;;15.57;11.80;;;;;;;11.17;77.41;101305.94;128456;1101;62030;-74
2021/05/20 06:44:25;;;;;;;13.47;10.50;;;;;;;11.29;77.45;101309.94;128439;1101;62006;-73
2021/05/20 06:46:52;;;;;;;20.00;12.70;;;;;;;11.38;76.52;101308.94;128385;1101;62135;-73
2021/05/20 06:49:20;;;;;;;15.27;10.47;;;;;;;11.42;75.41;101312.93;128461;1101;62017;-73
2021/05/20 06:51:47;;;;;;;13.10;9.10;;;;;;;11.44;76.02;101307.46;128377;1101;62484;-73
2021/05/20 06:54:15;;;;;;;17.20;11.30;;;;;;;11.54;76.59;101310.79;128471;1101;62334;-73
2021/05/20 06:56:43;;;;;;;12.93;9.60;;;;;;;11.72;75.59;101315.92;128403;1101;65814;-73
2021/05/20 07:01:56;;;;;;;17.30;11.50;;;;;;;11.95;74.18;101320.59;128469;1101;64112;-74
2021/05/20 07:04:23;;;;;;;15.93;9.87;;;;;;;11.98;73.57;101317.58;128431;1101;62096;-73
2021/05/20 07:06:50;;;;;;;12.70;8.57;;;;;;;11.99;73.13;101313.94;128411;1101;62211;-73
2021/05/20 07:09:25;;;;;;;12.30;9.33;;;;;;;12.03;73.21;101315.27;128453;1101;62344;-73
2021/05/20 07:11:53;;;;;;;15.87;11.80;;;;;;;12.03;72.62;101320.58;128443;1101;62141;-72
2021/05/20 07:14:20;;;;;;;16.67;12.10;;;;;;;12.10;72.67;101316.23;128484;1101;62382;-73
2021/05/20 07:16:47;;;;;;;16.40;11.00;;;;;;;12.17;73.45;101317.20;128375;1101;62510;-73
2021/05/20 07:19:21;;;;;;;15.20;11.40;;;;;;;12.28;72.88;101323.17;128352;1101;62204;-74
2021/05/20 07:21:50;;;;;;;17.97;13.77;;;;;;;12.49;72.74;101315.44;128355;1101;62420;-75
2021/05/20 07:24:18;;;;;;;13.03;10.47;;;;;;;12.54;70.83;101323.76;128382;1101;61995;-74
2021/05/20 07:26:51;;;;;;;13.10;10.83;;;;;;;12.62;71.18;101315.74;128394;1101;62112;-74
2021/05/20 07:29:18;;;;;;;14.17;11.17;;;;;;;12.74;71.19;101308.19;128377;1101;62226;-74
2021/05/20 07:31:45;;;;;;;14.53;8.87;;;;;;;12.98;71.09;101317.86;128451;1101;62478;-73
2021/05/20 07:34:12;;;;;;;13.67;10.17;;;;;;;13.24;69.07;101312.23;128288;1101;62306;-74
2021/05/20 07:36:39;;;;;;;16.47;12.93;;;;;;;13.36;68.99;101317.16;128441;1101;62038;-73
2021/05/20 07:39:07;;;;;;;14.80;11.67;;;;;;;13.34;69.70;101314.66;128460;1101;62977;-73
2021/05/20 07:41:35;;;;;;;14.70;8.47;;;;;;;13.27;67.85;101319.03;128461;1101;62235;-74
2021/05/20 07:44:03;;;;;;;9.07;6.97;;;;;;;13.32;66.26;101311.34;128470;1101;62097;-74
2021/05/20 07:46:30;;;;;;;12.40;9.80;;;;;;;13.53;67.73;101310.69;128473;1101;62071;-73
2021/05/20 07:48:57;;;;;;;12.40;10.23;;;;;;;13.73;67.84;101308.38;128426;1101;62629;-73
2021/05/20 07:51:24;;;;;;;13.23;9.07;;;;;;;13.79;65.77;101304.13;128424;1101;62038;-73
2021/05/20 07:53:51;;;;;;;7.03;4.93;;;;;;;13.64;64.34;101309.44;128393;1101;62237;-74
2021/05/20 07:56:18;;;;;;;10.23;6.80;;;;;;;13.55;65.01;101310.52;128387;1101;62601;-74
2021/05/20 07:58:52;;;;;;;9.83;6.73;;;;;;;13.68;64.91;101313.40;128463;1101;62195;-74
2021/05/20 08:01:20;;;;;;;9.87;7.77;;;;;;;13.81;64.67;101299.45;128413;1101;62113;-74
2021/05/20 08:06:18;;;;;;;5.77;4.80;;;;;;;13.75;64.55;101301.02;128469;1101;62123;-74
2021/05/20 08:09:02;;;;;;;10.53;5.87;;;;;;;13.59;63.66;101291.31;128495;1101;62026;-73
2021/05/20 08:11:31;;;;;;;7.10;5.40;;;;;;;13.56;62.74;101289.02;128475;1101;62846;-74
2021/05/20 08:13:58;;;;;;;7.00;4.97;;;;;;;13.70;63.76;101289.23;128432;1101;62233;-73
2021/05/20 08:16:25;;;;;;;10.60;6.20;;;;;;;13.57;61.22;101281.84;128427;1101;62359;-74
2021/05/20 08:18:52;;;;;;;5.60;3.47;;;;;;;13.34;58.84;101296.02;128400;1101;62104;-74
2021/05/20 08:21:20;;;;;;;5.57;3.30;;;;;;;13.18;59.08;101290.80;128465;1101;61966;-74
2021/05/20 08:23:47;;;;;;;7.03;3.67;;;;;;;13.12;61.39;101278.18;128410;1101;62743;-74
2021/05/20 08:26:14;;;;;;;5.93;4.27;;;;;;;13.25;61.91;101289.06;128342;1101;62703;-74
2021/05/20 08:28:45;;;;;;;6.63;4.43;;;;;;;13.39;59.87;101280.34;128280;1101;62317;-74
2021/05/20 08:31:12;;;;;;;6.67;3.50;;;;;;;13.44;58.93;101288.61;128429;1101;62248;-75
2021/05/20 08:33:39;;;;;;;4.40;2.87;;;;;;;13.52;58.07;101284.23;128445;1101;62311;-75
2021/05/20 08:36:07;;;;;;;4.70;3.73;;;;;;;13.55;58.32;101284.69;128425;1101;62872;-76
2021/05/20 08:38:34;;;;;;;5.07;3.30;;;;;;;13.68;58.59;101276.07;128334;1101;62538;-74
2021/05/20 08:41:01;;;;;;;5.37;3.60;;;;;;;13.86;56.38;101281.08;128474;1101;62131;-75
2021/05/20 08:43:28;;;;;;;5.87;3.73;;;;;;;14.02;55.73;101290.73;128470;1101;62225;-74
2021/05/20 08:45:56;;;;;;;5.80;3.30;;;;;;;14.24;57.16;101284.50;128439;1101;62043;-75
2021/05/20 08:48:23;;;;;;;5.23;3.83;;;;;;;14.56;56.62;101281.66;128486;1101;61993;-75
2021/05/20 08:50:50;;;;;;;6.37;3.47;;;;;;;14.59;54.21;101292.77;128466;1101;62233;-75
2021/05/20 08:53:17;;;;;;;4.40;3.20;;;;;;;14.55;53.89;101280.80;128490;1101;62103;-76
2021/05/20 08:55:44;;;;;;;4.93;3.40;;;;;;;14.66;54.17;101285.69;128454;1101;62229;-75
2021/05/20 08:58:12;;;;;;;6.57;3.53;;;;;;;14.86;53.87;101275.22;128474;1101;62082;-75
2021/05/20 09:00:40;;;;;;;5.43;2.90;;;;;;;14.92;53.79;101281.66;128453;1101;62712;-75
2021/05/20 09:03:13;;;;;;;7.37;4.23;;;;;;;14.93;52.36;101293.98;128464;1101;62170;-75
2021/05/20 09:05:43;;;;;;;3.47;2.67;;;;;;;14.94;53.92;101274.28;128313;1101;62345;-76
2021/05/20 09:08:20;;;;;;;5.27;2.87;;;;;;;14.87;53.15;101286.72;128268;1101;62191;-76
2021/05/20 09:10:48;;;;;;;5.57;2.83;;;;;;;14.87;52.54;101284.05;128150;1101;63108;-77
2021/05/20 09:13:20;;;;;;;4.87;3.57;;;;;;;14.96;52.08;101282.08;128089;1102;64221;-76
2021/05/20 09:15:50;;;;;;;10.60;3.77;;;;;;;15.05;53.32;101276.44;127979;1102;64156;-76
2021/05/20 09:18:21;;;;;;;4.63;3.37;;;;;;;15.19;51.52;101268.55;128132;1101;63709;-76
2021/05/20 09:20:59;;;;;;;6.10;2.93;;;;;;;15.48;51.08;101283.62;127811;1102;62893;-76
2021/05/20 09:23:49;;;;;;;3.23;2.07;;;;;;;15.67;49.60;101274.92;127730;1101;62450;-75
2021/05/20 09:26:35;;;;;;;3.30;2.43;;;;;;;15.73;51.01;101267.20;127792;1102;62734;-78
2021/05/20 09:29:14;;;;;;;3.17;2.10;;;;;;;15.62;49.09;101265.82;128158;1101;62441;-78
2021/05/20 09:31:47;;;;;;;3.90;2.20;;;;;;;15.42;48.72;101271.84;128024;1101;62338;-76
2021/05/20 09:34:17;;;;;;;6.10;2.47;;;;;;;15.37;49.97;101268.93;128432;1101;62339;-77
2021/05/20 09:36:50;;;;;;;4.63;2.30;;;;;;;15.59;50.09;101263.55;128148;1101;63281;-76
2021/05/20 09:39:18;;;;;;;5.00;1.30;;;;;;;15.64;46.71;101259.28;128385;1101;62231;-75
2021/05/20 09:41:46;;;;;;;3.17;1.90;;;;;;;15.81;47.33;101253.64;128517;1101;62594;-75
2021/05/20 09:44:30;;;;;;;4.83;2.70;;;;;;;16.01;46.36;101261.81;128462;1101;62431;-75
2021/05/20 09:46:58;;;;;;;4.10;2.50;;;;;;;16.35;48.11;101252.92;128363;1101;62256;-74
2021/05/20 09:49:30;;;;;;;4.87;2.77;;;;;;;16.65;45.24;101256.12;128192;1101;62150;-75
2021/05/20 09:52:30;;;;;;;4.13;1.70;;;;;;;16.78;46.76;101259.88;128140;1101;64258;-75
2021/05/20 09:54:59;;;;;;;4.60;1.90;;;;;;;16.46;43.85;101246.98;128062;1101;64218;-75
2021/05/20 09:57:30;;;;;;;3.50;1.83;;;;;;;16.53;44.58;101244.33;128200;1101;62433;-76
2021/05/20 10:00:13;;;;;;;2.53;1.50;;;;;;;16.60;44.09;101245.20;128368;1101;62311;-73
2021/05/20 10:02:41;;;;;;;4.47;2.70;;;;;;;16.24;45.00;101248.96;128448;1101;62374;-75
2021/05/20 10:05:30;;;;;;;3.30;2.50;;;;;;;16.01;47.32;101237.73;128445;1101;62872;-75
2021/05/20 10:08:00;;;;;;;4.20;2.73;;;;;;;15.64;48.31;101258.43;128460;1101;62043;-75
2021/05/20 10:10:34;;;;;;;8.00;3.80;;;;;;;15.47;49.13;101253.39;128475;1101;62133;-75
2021/05/20 10:13:08;;;;;;;3.97;2.57;;;;;;;15.32;50.23;101257.97;128468;1101;64364;-75
2021/05/20 10:15:35;;;;;;;6.23;3.13;;;;;;;15.26;51.88;101258.77;128465;1101;62259;-75
2021/05/20 10:18:04;;;;;;;5.60;3.80;;;;;;;15.18;52.36;101248.20;128465;1101;62086;-75
2021/05/20 10:20:34;;;;;;;7.23;3.67;;;;;;;15.07;52.60;101250.36;128363;1101;62154;-75
2021/05/20 10:23:06;;;;;;;6.87;3.07;;;;;;;15.05;53.38;101239.03;128407;1101;62163;-75
2021/05/20 10:25:35;;;;;;;5.00;2.90;;;;;;;15.00;51.75;101246.81;128462;1101;62166;-75
2021/05/20 10:28:02;;;;;;;3.40;2.00;;;;;;;14.94;52.21;101246.72;128204;1101;61816;-74
2021/05/20 10:30:31;;;;;;;5.67;3.17;;;;;;;14.88;52.67;101237.64;128526;1101;63803;-75
2021/05/20 10:32:59;;;;;;;2.70;2.00;;;;;;;14.77;52.59;101235.45;128453;1101;62032;-74
2021/05/20 10:35:52;;;;;;;3.63;2.00;;;;;;;14.72;53.83;101230.67;128456;1101;62085;-74
2021/05/20 10:38:25;;;;;;;3.13;1.90;;;;;;;14.99;52.48;101231.78;128438;1101;62177;-74
2021/05/20 10:41:17;;;;;;;4.83;2.37;;;;;;;15.38;51.99;101226.98;128504;1101;62118;-75
2021/05/20 10:43:47;;;;;;;3.87;2.37;;;;;;;15.82;51.53;101217.86;128409;1101;62443;-74
2021/05/20 10:46:16;;;;;;;2.97;2.33;;;;;;;16.23;50.93;101207.14;128439;1101;62101;-74
2021/05/20 10:48:54;;;;;;;4.63;2.70;;;;;;;16.62;49.44;101208.31;128452;1101;62256;-74
2021/05/20 10:51:25;;;;;;;2.80;2.20;;;;;;;16.81;50.15;101208.58;128482;1101;62171;-74
2021/05/20 10:54:05;;;;;;;4.37;2.47;;;;;;;16.76;45.45;101213.70;128472;1101;62022;-74
2021/05/20 10:56:32;;;;;;;2.97;1.63;;;;;;;16.50;44.57;101209.92;128450;1101;63520;-75
2021/05/20 10:59:01;;;;;;;6.07;2.27;;;;;;;16.13;49.18;101225.45;128452;1101;62082;-74
2021/05/20 11:01:31;;;;;;;5.00;2.87;;;;;;;15.57;54.77;101234.31;128471;1101;62249;-72
2021/05/20 11:04:03;;;;;;;7.57;3.40;;;;;;;15.02;58.20;101234.05;128410;1101;62249;-73
2021/05/20 11:06:43;;;;;;;5.17;3.67;;;;;;;14.66;57.00;101234.10;128465;1101;62351;-73
2021/05/20 11:09:12;;;;;;;5.53;3.17;;;;;;;14.37;57.49;101229.64;128433;1100;62287;-72
2021/05/20 11:11:39;;;;;;;2.07;1.30;;;;;;;14.10;53.26;101233.81;128376;1101;62207;-74
2021/05/20 11:14:26;;;;;;;3.43;1.60;;;;;;;14.05;53.36;101239.70;128437;1101;61981;-71
2021/05/20 11:16:54;;;;;;;1.40;0.93;;;;;;;13.97;49.02;101234.45;128409;1101;62124;-74
2021/05/20 11:19:25;;;;;;;2.23;0.80;;;;;;;13.99;49.35;101229.77;128449;1101;62242;-74
2021/05/20 11:21:56;;;;;;;0.80;0.40;;;;;;;14.01;47.79;101233.08;128432;1101;62746;-73
2021/05/20 11:24:53;;;;;;;1.17;0.63;;;;;;;14.04;49.64;101220.18;128430;1101;62489;-73
2021/05/20 11:27:23;;;;;;;1.00;0.50;;;;;;;14.03;49.65;101220.39;128332;1101;62682;-73